sensor_id;sensor_type;location;lat;lon;timestamp;pressure;altitude;pressure_sealevel;temperature;humidity
29239;BME280;16267;48.194;11.546;2023-09-08T00:00:06;96259.03;;;18.49;65.22
29239;BME280;16267;48.194;11.546;2023-09-08T00:02:32;96259.94;;;18.46;65.06
29239;BME280;16267;48.194;11.546;2023-09-08T00:04:58;96253.88;;;18.42;65.04
29239;BME280;16267;48.194;11.546;2023-09-08T00:07:23;96257.03;;;18.40;65.07
29239;BME280;16267;48.194;11.546;2023-09-08T00:09:49;96265.31;;;18.37;65.54
29239;BME280;16267;48.194;11.546;2023-09-08T00:12:15;96266.94;;;18.34;65.23
29239;BME280;16267;48.194;11.546;2023-09-08T00:14:42;96260.75;;;18.34;65.58
29239;BME280;16267;48.194;11.546;2023-09-08T00:17:07;96267.84;;;18.31;65.88
29239;BME280;16267;48.194;11.546;2023-09-08T00:19:33;96263.75;;;18.26;66.18
29239;BME280;16267;48.194;11.546;2023-09-08T00:21:59;96260.06;;;18.20;66.63
29239;BME280;16267;48.194;11.546;2023-09-08T00:24:26;96259.78;;;18.18;66.47
29239;BME280;16267;48.194;11.546;2023-09-08T00:26:52;96261.41;;;18.16;66.51
29239;BME280;16267;48.194;11.546;2023-09-08T00:29:17;96258.38;;;18.14;66.20
29239;BME280;16267;48.194;11.546;2023-09-08T00:31:43;96256.09;;;18.12;65.88
29239;BME280;16267;48.194;11.546;2023-09-08T00:34:09;96254.28;;;18.09;65.87
29239;BME280;16267;48.194;11.546;2023-09-08T00:36:36;96250.47;;;18.06;65.74
29239;BME280;16267;48.194;11.546;2023-09-08T00:39:02;96249.41;;;18.04;66.02
29239;BME280;16267;48.194;11.546;2023-09-08T00:41:27;96242.94;;;18.01;66.22
29239;BME280;16267;48.194;11.546;2023-09-08T00:43:53;96253.47;;;17.99;66.12
29239;BME280;16267;48.194;11.546;2023-09-08T00:46:19;96249.66;;;17.97;66.04
29239;BME280;16267;48.194;11.546;2023-09-08T00:48:45;96249.81;;;17.93;66.12
29239;BME280;16267;48.194;11.546;2023-09-08T00:51:11;96250.25;;;17.92;65.89
29239;BME280;16267;48.194;11.546;2023-09-08T00:53:37;96253.50;;;17.87;65.80
29239;BME280;16267;48.194;11.546;2023-09-08T00:56:03;96257.88;;;17.84;65.83
29239;BME280;16267;48.194;11.546;2023-09-08T00:58:30;96254.53;;;17.80;65.88
29239;BME280;16267;48.194;11.546;2023-09-08T01:00:56;96256.13;;;17.77;65.90
29239;BME280;16267;48.194;11.546;2023-09-08T01:03:25;96248.88;;;17.74;66.29
29239;BME280;16267;48.194;11.546;2023-09-08T01:05:51;96262.56;;;17.71;66.92
29239;BME280;16267;48.194;11.546;2023-09-08T01:08:17;96252.56;;;17.68;67.18
29239;BME280;16267;48.194;11.546;2023-09-08T01:10:45;96252.28;;;17.66;67.31
29239;BME280;16267;48.194;11.546;2023-09-08T01:13:11;96248.16;;;17.61;67.76
29239;BME280;16267;48.194;11.546;2023-09-08T01:15:37;96250.22;;;17.57;67.91
29239;BME280;16267;48.194;11.546;2023-09-08T01:18:03;96247.97;;;17.55;67.92
29239;BME280;16267;48.194;11.546;2023-09-08T01:20:48;96262.41;;;17.52;67.33
29239;BME280;16267;48.194;11.546;2023-09-08T01:23:26;96251.22;;;17.50;67.30
29239;BME280;16267;48.194;11.546;2023-09-08T01:28:28;96249.41;;;17.47;67.19
29239;BME280;16267;48.194;11.546;2023-09-08T01:30:55;96249.81;;;17.46;67.11
29239;BME280;16267;48.194;11.546;2023-09-08T01:33:22;96258.09;;;17.42;67.57
29239;BME280;16267;48.194;11.546;2023-09-08T01:35:49;96246.91;;;17.40;67.76
29239;BME280;16267;48.194;11.546;2023-09-08T01:38:15;96250.06;;;17.38;67.55
29239;BME280;16267;48.194;11.546;2023-09-08T01:40:41;96253.22;;;17.37;67.91
29239;BME280;16267;48.194;11.546;2023-09-08T01:43:07;96257.56;;;17.34;67.59
29239;BME280;16267;48.194;11.546;2023-09-08T01:45:33;96250.31;;;17.31;67.64
29239;BME280;16267;48.194;11.546;2023-09-08T01:47:58;96245.75;;;17.28;67.73
29239;BME280;16267;48.194;11.546;2023-09-08T01:50:24;96245.88;;;17.25;67.40
29239;BME280;16267;48.194;11.546;2023-09-08T01:52:51;96241.66;;;17.24;68.03
29239;BME280;16267;48.194;11.546;2023-09-08T01:55:17;96240.56;;;17.21;67.74
29239;BME280;16267;48.194;11.546;2023-09-08T01:57:43;96242.63;;;17.17;68.09
29239;BME280;16267;48.194;11.546;2023-09-08T02:00:10;96236.13;;;17.14;67.93
29239;BME280;16267;48.194;11.546;2023-09-08T02:02:36;96238.50;;;17.12;68.29
29239;BME280;16267;48.194;11.546;2023-09-08T02:05:02;96245.59;;;17.10;68.06
29239;BME280;16267;48.194;11.546;2023-09-08T02:07:29;96245.69;;;17.06;68.29
29239;BME280;16267;48.194;11.546;2023-09-08T02:09:54;96236.47;;;17.04;68.91
29239;BME280;16267;48.194;11.546;2023-09-08T02:12:21;96235.38;;;17.01;68.70
29239;BME280;16267;48.194;11.546;2023-09-08T02:14:47;96232.38;;;16.99;69.23
29239;BME280;16267;48.194;11.546;2023-09-08T02:17:13;96234.00;;;16.97;69.27
29239;BME280;16267;48.194;11.546;2023-09-08T02:19:38;96239.50;;;16.93;69.45
29239;BME280;16267;48.194;11.546;2023-09-08T02:22:04;96238.88;;;16.89;69.58
29239;BME280;16267;48.194;11.546;2023-09-08T02:24:30;96239.28;;;16.87;69.83
29239;BME280;16267;48.194;11.546;2023-09-08T02:26:56;96235.84;;;16.87;69.17
29239;BME280;16267;48.194;11.546;2023-09-08T02:29:21;96244.41;;;16.85;69.01
29239;BME280;16267;48.194;11.546;2023-09-08T02:31:48;96239.41;;;16.84;69.21
29239;BME280;16267;48.194;11.546;2023-09-08T02:34:14;96236.38;;;16.82;69.43
29239;BME280;16267;48.194;11.546;2023-09-08T02:36:40;96243.41;;;16.79;69.23
29239;BME280;16267;48.194;11.546;2023-09-08T02:39:06;96232.28;;;16.77;69.05
29239;BME280;16267;48.194;11.546;2023-09-08T02:41:32;96231.53;;;16.77;68.98
29239;BME280;16267;48.194;11.546;2023-09-08T02:43:58;96237.34;;;16.75;68.61
29239;BME280;16267;48.194;11.546;2023-09-08T02:46:24;96238.22;;;16.72;68.52
29239;BME280;16267;48.194;11.546;2023-09-08T02:48:51;96233.31;;;16.67;69.10
29239;BME280;16267;48.194;11.546;2023-09-08T02:51:17;96234.19;;;16.64;69.92
29239;BME280;16267;48.194;11.546;2023-09-08T02:53:42;96231.91;;;16.62;69.70
29239;BME280;16267;48.194;11.546;2023-09-08T02:56:08;96226.94;;;16.61;69.96
29239;BME280;16267;48.194;11.546;2023-09-08T02:58:35;96228.56;;;16.58;69.51
29239;BME280;16267;48.194;11.546;2023-09-08T03:01:15;96232.47;;;16.57;69.22
29239;BME280;16267;48.194;11.546;2023-09-08T03:03:44;96230.94;;;16.56;69.18
29239;BME280;16267;48.194;11.546;2023-09-08T03:06:14;96231.06;;;16.53;69.94
29239;BME280;16267;48.194;11.546;2023-09-08T03:08:40;96240.81;;;16.50;70.46
29239;BME280;16267;48.194;11.546;2023-09-08T03:11:06;96229.28;;;16.46;71.30
29239;BME280;16267;48.194;11.546;2023-09-08T03:13:32;96229.75;;;16.44;70.96
29239;BME280;16267;48.194;11.546;2023-09-08T03:16:06;96237.53;;;16.42;70.95
29239;BME280;16267;48.194;11.546;2023-09-08T03:18:36;96224.84;;;16.39;70.89
29239;BME280;16267;48.194;11.546;2023-09-08T03:21:03;96231.47;;;16.38;70.61
29239;BME280;16267;48.194;11.546;2023-09-08T03:23:37;96221.06;;;16.37;70.78
29239;BME280;16267;48.194;11.546;2023-09-08T03:26:03;96234.28;;;16.35;71.05
29239;BME280;16267;48.194;11.546;2023-09-08T03:28:29;96228.56;;;16.33;70.77
29239;BME280;16267;48.194;11.546;2023-09-08T03:30:54;96232.88;;;16.30;70.84
29239;BME280;16267;48.194;11.546;2023-09-08T03:33:20;96227.13;;;16.28;70.46
29239;BME280;16267;48.194;11.546;2023-09-08T03:35:46;96232.97;;;16.26;70.20
29239;BME280;16267;48.194;11.546;2023-09-08T03:38:11;96230.69;;;16.25;70.76
29239;BME280;16267;48.194;11.546;2023-09-08T03:40:37;96233.50;;;16.21;71.09
29239;BME280;16267;48.194;11.546;2023-09-08T03:43:04;96229.28;;;16.20;70.77
29239;BME280;16267;48.194;11.546;2023-09-08T03:45:30;96232.44;;;16.19;70.78
29239;BME280;16267;48.194;11.546;2023-09-08T03:47:55;96233.28;;;16.16;70.79
29239;BME280;16267;48.194;11.546;2023-09-08T03:50:21;96237.94;;;16.15;70.64
29239;BME280;16267;48.194;11.546;2023-09-08T03:52:47;96237.63;;;16.13;70.38
29239;BME280;16267;48.194;11.546;2023-09-08T03:55:13;96233.06;;;16.10;70.83
29239;BME280;16267;48.194;11.546;2023-09-08T03:57:39;96238.13;;;16.08;71.15
29239;BME280;16267;48.194;11.546;2023-09-08T04:00:05;96230.44;;;16.06;70.84
29239;BME280;16267;48.194;11.546;2023-09-08T04:02:32;96231.63;;;16.05;70.93
29239;BME280;16267;48.194;11.546;2023-09-08T04:04:58;96234.00;;;16.03;70.50
29239;BME280;16267;48.194;11.546;2023-09-08T04:07:24;96234.44;;;16.02;70.39
29239;BME280;16267;48.194;11.546;2023-09-08T04:09:50;96238.00;;;15.99;70.67
29239;BME280;16267;48.194;11.546;2023-09-08T04:12:16;96240.81;;;15.95;71.08
29239;BME280;16267;48.194;11.546;2023-09-08T04:14:42;96243.97;;;15.94;70.95
29239;BME280;16267;48.194;11.546;2023-09-08T04:17:07;96242.41;;;15.93;70.83
29239;BME280;16267;48.194;11.546;2023-09-08T04:19:33;96243.28;;;15.90;70.64
29239;BME280;16267;48.194;11.546;2023-09-08T04:21:59;96242.94;;;15.88;70.65
29239;BME280;16267;48.194;11.546;2023-09-08T04:24:25;96244.25;;;15.83;71.34
29239;BME280;16267;48.194;11.546;2023-09-08T04:26:51;96245.50;;;15.78;72.37
29239;BME280;16267;48.194;11.546;2023-09-08T04:29:17;96240.97;;;15.75;72.97
29239;BME280;16267;48.194;11.546;2023-09-08T04:31:42;96241.81;;;15.72;73.08
29239;BME280;16267;48.194;11.546;2023-09-08T04:34:08;96241.91;;;15.69;73.25
29239;BME280;16267;48.194;11.546;2023-09-08T04:36:34;96240.34;;;15.68;73.17
29239;BME280;16267;48.194;11.546;2023-09-08T04:38:59;96241.13;;;15.68;72.66
29239;BME280;16267;48.194;11.546;2023-09-08T04:41:25;96240.78;;;15.66;73.47
29239;BME280;16267;48.194;11.546;2023-09-08T04:43:51;96241.22;;;15.65;73.13
29239;BME280;16267;48.194;11.546;2023-09-08T04:46:16;96247.47;;;15.61;73.69
29239;BME280;16267;48.194;11.546;2023-09-08T04:48:42;96247.88;;;15.60;73.81
29239;BME280;16267;48.194;11.546;2023-09-08T04:51:08;96255.34;;;15.56;73.86
29239;BME280;16267;48.194;11.546;2023-09-08T04:53:33;96250.44;;;15.51;73.74
29239;BME280;16267;48.194;11.546;2023-09-08T04:56:02;96252.81;;;15.49;74.32
29239;BME280;16267;48.194;11.546;2023-09-08T04:58:27;96244.38;;;15.47;74.36
29239;BME280;16267;48.194;11.546;2023-09-08T05:00:53;96249.13;;;15.43;75.25
29239;BME280;16267;48.194;11.546;2023-09-08T05:03:19;96248.78;;;15.40;76.06
29239;BME280;16267;48.194;11.546;2023-09-08T05:05:45;96248.47;;;15.38;76.11
29239;BME280;16267;48.194;11.546;2023-09-08T05:08:10;96250.81;;;15.36;76.30
29239;BME280;16267;48.194;11.546;2023-09-08T05:10:36;96252.78;;;15.36;76.19
29239;BME280;16267;48.194;11.546;2023-09-08T05:13:02;96253.53;;;15.36;75.73
29239;BME280;16267;48.194;11.546;2023-09-08T05:15:28;96259.28;;;15.38;75.73
29239;BME280;16267;48.194;11.546;2023-09-08T05:17:56;96257.75;;;15.37;76.52
29239;BME280;16267;48.194;11.546;2023-09-08T05:20:22;96257.31;;;15.39;76.03
29239;BME280;16267;48.194;11.546;2023-09-08T05:22:47;96255.38;;;15.39;75.36
29239;BME280;16267;48.194;11.546;2023-09-08T05:25:13;96263.06;;;15.41;76.04
29239;BME280;16267;48.194;11.546;2023-09-08T05:27:39;96257.97;;;15.43;75.82
29239;BME280;16267;48.194;11.546;2023-09-08T05:30:05;96264.94;;;15.44;75.41
29239;BME280;16267;48.194;11.546;2023-09-08T05:32:36;96254.88;;;15.45;76.23
29239;BME280;16267;48.194;11.546;2023-09-08T05:35:02;96269.91;;;15.46;76.29
29239;BME280;16267;48.194;11.546;2023-09-08T05:37:28;96273.69;;;15.48;75.68
29239;BME280;16267;48.194;11.546;2023-09-08T05:39:53;96269.03;;;15.49;75.83
29239;BME280;16267;48.194;11.546;2023-09-08T05:42:19;96277.50;;;15.51;76.70
29239;BME280;16267;48.194;11.546;2023-09-08T05:44:45;96273.19;;;15.53;78.38
29239;BME280;16267;48.194;11.546;2023-09-08T05:47:11;96278.19;;;15.55;77.66
29239;BME280;16267;48.194;11.546;2023-09-08T05:49:37;96275.78;;;15.57;77.31
29239;BME280;16267;48.194;11.546;2023-09-08T05:52:03;96279.59;;;15.59;78.09
29239;BME280;16267;48.194;11.546;2023-09-08T05:54:29;96276.81;;;15.63;80.87
29239;BME280;16267;48.194;11.546;2023-09-08T05:56:55;96280.28;;;15.64;78.99
29239;BME280;16267;48.194;11.546;2023-09-08T05:59:21;96281.72;;;15.68;80.32
29239;BME280;16267;48.194;11.546;2023-09-08T06:01:47;96287.47;;;15.70;82.52
29239;BME280;16267;48.194;11.546;2023-09-08T06:04:12;96286.63;;;15.73;83.54
29239;BME280;16267;48.194;11.546;2023-09-08T06:06:40;96290.44;;;15.76;84.90
29239;BME280;16267;48.194;11.546;2023-09-08T06:09:06;96292.28;;;15.79;85.87
29239;BME280;16267;48.194;11.546;2023-09-08T06:11:33;96291.41;;;15.82;86.19
29239;BME280;16267;48.194;11.546;2023-09-08T06:14:00;96289.06;;;15.84;85.55
29239;BME280;16267;48.194;11.546;2023-09-08T06:16:26;96288.19;;;15.87;85.08
29239;BME280;16267;48.194;11.546;2023-09-08T06:18:52;96292.34;;;15.92;83.63
29239;BME280;16267;48.194;11.546;2023-09-08T06:21:17;96294.94;;;15.95;82.65
29239;BME280;16267;48.194;11.546;2023-09-08T06:23:43;96284.78;;;15.99;81.99
29239;BME280;16267;48.194;11.546;2023-09-08T06:26:09;96294.31;;;16.04;85.45
29239;BME280;16267;48.194;11.546;2023-09-08T06:28:34;96290.00;;;16.06;86.75
29239;BME280;16267;48.194;11.546;2023-09-08T06:31:01;96291.44;;;16.11;86.74
29239;BME280;16267;48.194;11.546;2023-09-08T06:33:26;96296.31;;;16.16;85.61
29239;BME280;16267;48.194;11.546;2023-09-08T06:35:52;96288.84;;;16.20;83.81
29239;BME280;16267;48.194;11.546;2023-09-08T06:38:19;96290.63;;;16.27;83.35
29239;BME280;16267;48.194;11.546;2023-09-08T06:40:45;96299.72;;;16.33;84.12
29239;BME280;16267;48.194;11.546;2023-09-08T06:43:10;96289.53;;;16.37;84.39
29239;BME280;16267;48.194;11.546;2023-09-08T06:45:39;96292.47;;;16.43;83.50
29239;BME280;16267;48.194;11.546;2023-09-08T06:48:08;96292.28;;;16.50;84.20
29239;BME280;16267;48.194;11.546;2023-09-08T06:50:34;96295.97;;;16.56;85.56
29239;BME280;16267;48.194;11.546;2023-09-08T06:53:00;96296.94;;;16.62;87.13
29239;BME280;16267;48.194;11.546;2023-09-08T06:55:26;96289.81;;;16.68;87.57
29239;BME280;16267;48.194;11.546;2023-09-08T06:57:52;96301.63;;;16.75;86.84
29239;BME280;16267;48.194;11.546;2023-09-08T07:00:17;96302.63;;;16.81;87.11
29239;BME280;16267;48.194;11.546;2023-09-08T07:02:43;96297.00;;;16.88;87.41
29239;BME280;16267;48.194;11.546;2023-09-08T07:05:09;96295.28;;;16.94;87.26
29239;BME280;16267;48.194;11.546;2023-09-08T07:07:35;96297.00;;;17.01;87.99
29239;BME280;16267;48.194;11.546;2023-09-08T07:10:05;96296.03;;;17.07;88.02
29239;BME280;16267;48.194;11.546;2023-09-08T07:12:31;96298.97;;;17.13;88.04
29239;BME280;16267;48.194;11.546;2023-09-08T07:14:57;96294.50;;;17.19;88.95
29239;BME280;16267;48.194;11.546;2023-09-08T07:17:25;96298.91;;;17.26;88.62
29239;BME280;16267;48.194;11.546;2023-09-08T07:19:51;96297.97;;;17.32;88.52
29239;BME280;16267;48.194;11.546;2023-09-08T07:22:21;96291.53;;;17.39;87.73
29239;BME280;16267;48.194;11.546;2023-09-08T07:24:47;96292.50;;;17.45;88.28
29239;BME280;16267;48.194;11.546;2023-09-08T07:27:12;96293.44;;;17.51;87.77
29239;BME280;16267;48.194;11.546;2023-09-08T07:29:41;96295.19;;;17.58;88.42
29239;BME280;16267;48.194;11.546;2023-09-08T07:32:07;96290.72;;;17.64;88.45
29239;BME280;16267;48.194;11.546;2023-09-08T07:34:34;96288.94;;;17.70;88.04
29239;BME280;16267;48.194;11.546;2023-09-08T07:37:01;96290.25;;;17.78;87.62
29239;BME280;16267;48.194;11.546;2023-09-08T07:39:26;96286.09;;;17.87;88.16
29239;BME280;16267;48.194;11.546;2023-09-08T07:42:04;96290.84;;;17.95;87.71
29239;BME280;16267;48.194;11.546;2023-09-08T07:44:30;96294.06;;;18.03;87.05
29239;BME280;16267;48.194;11.546;2023-09-08T07:46:55;96294.59;;;18.11;86.85
29239;BME280;16267;48.194;11.546;2023-09-08T07:49:23;96285.72;;;18.19;86.09
29239;BME280;16267;48.194;11.546;2023-09-08T07:51:49;96294.41;;;18.27;86.41
29239;BME280;16267;48.194;11.546;2023-09-08T07:54:15;96288.25;;;18.36;85.99
29239;BME280;16267;48.194;11.546;2023-09-08T07:56:40;96296.44;;;18.45;85.66
29239;BME280;16267;48.194;11.546;2023-09-08T07:59:07;96300.75;;;18.55;85.70
29239;BME280;16267;48.194;11.546;2023-09-08T08:01:33;96300.03;;;18.64;85.70
29239;BME280;16267;48.194;11.546;2023-09-08T08:03:59;96300.06;;;18.73;84.75
29239;BME280;16267;48.194;11.546;2023-09-08T08:06:24;96301.81;;;18.80;82.46
29239;BME280;16267;48.194;11.546;2023-09-08T08:08:50;96304.56;;;18.89;82.98
29239;BME280;16267;48.194;11.546;2023-09-08T08:11:28;96303.09;;;18.97;82.15
29239;BME280;16267;48.194;11.546;2023-09-08T08:13:54;96298.44;;;19.07;82.42
29239;BME280;16267;48.194;11.546;2023-09-08T08:16:22;96293.03;;;19.16;82.90
29239;BME280;16267;48.194;11.546;2023-09-08T08:19:01;96302.75;;;19.26;82.29
29239;BME280;16267;48.194;11.546;2023-09-08T08:21:27;96300.03;;;19.35;81.82
29239;BME280;16267;48.194;11.546;2023-09-08T08:23:52;96292.78;;;19.42;80.80
29239;BME280;16267;48.194;11.546;2023-09-08T08:26:18;96283.13;;;19.50;80.70
29239;BME280;16267;48.194;11.546;2023-09-08T08:28:44;96285.84;;;19.59;80.40
29239;BME280;16267;48.194;11.546;2023-09-08T08:31:10;96290.13;;;19.69;79.85
29239;BME280;16267;48.194;11.546;2023-09-08T08:33:35;96285.16;;;19.77;79.45
29239;BME280;16267;48.194;11.546;2023-09-08T08:36:01;96289.09;;;19.85;79.75
29239;BME280;16267;48.194;11.546;2023-09-08T08:38:27;96295.00;;;19.93;78.59
29239;BME280;16267;48.194;11.546;2023-09-08T08:40:53;96289.53;;;20.02;79.36
29239;BME280;16267;48.194;11.546;2023-09-08T08:43:19;96288.31;;;20.12;79.80
29239;BME280;16267;48.194;11.546;2023-09-08T08:45:46;96288.31;;;20.21;77.94
29239;BME280;16267;48.194;11.546;2023-09-08T08:48:19;96285.28;;;20.28;77.54
29239;BME280;16267;48.194;11.546;2023-09-08T08:50:47;96286.16;;;20.35;77.82
29239;BME280;16267;48.194;11.546;2023-09-08T08:53:13;96283.84;;;20.42;77.67
29239;BME280;16267;48.194;11.546;2023-09-08T08:55:40;96284.19;;;20.54;76.82
29239;BME280;16267;48.194;11.546;2023-09-08T08:58:06;96284.47;;;20.65;76.00
29239;BME280;16267;48.194;11.546;2023-09-08T09:00:35;96282.44;;;20.75;74.87
29239;BME280;16267;48.194;11.546;2023-09-08T09:03:04;96281.38;;;20.81;73.97
29239;BME280;16267;48.194;11.546;2023-09-08T09:05:33;96276.31;;;20.89;74.13
29239;BME280;16267;48.194;11.546;2023-09-08T09:08:01;96274.31;;;20.99;73.63
29239;BME280;16267;48.194;11.546;2023-09-08T09:10:31;96272.47;;;21.05;70.89
29239;BME280;16267;48.194;11.546;2023-09-08T09:12:57;96277.13;;;21.13;72.30
29239;BME280;16267;48.194;11.546;2023-09-08T09:15:30;96274.81;;;21.21;72.16
29239;BME280;16267;48.194;11.546;2023-09-08T09:18:08;96272.78;;;21.31;70.82
29239;BME280;16267;48.194;11.546;2023-09-08T09:20:34;96273.53;;;21.41;71.01
29239;BME280;16267;48.194;11.546;2023-09-08T09:23:00;96269.50;;;21.51;71.23
29239;BME280;16267;48.194;11.546;2023-09-08T09:25:29;96272.19;;;21.60;71.28
29239;BME280;16267;48.194;11.546;2023-09-08T09:28:00;96267.88;;;21.68;69.65
29239;BME280;16267;48.194;11.546;2023-09-08T09:30:28;96263.06;;;21.78;69.11
29239;BME280;16267;48.194;11.546;2023-09-08T09:33:04;96265.00;;;21.87;70.13
29239;BME280;16267;48.194;11.546;2023-09-08T09:35:47;96260.09;;;21.91;68.54
29239;BME280;16267;48.194;11.546;2023-09-08T09:38:13;96257.47;;;21.96;69.27
29239;BME280;16267;48.194;11.546;2023-09-08T09:40:39;96261.34;;;22.04;68.63
29239;BME280;16267;48.194;11.546;2023-09-08T09:43:09;96257.03;;;22.13;69.04
29239;BME280;16267;48.194;11.546;2023-09-08T09:45:36;96269.88;;;22.21;68.13
29239;BME280;16267;48.194;11.546;2023-09-08T09:48:04;96264.50;;;22.27;66.96
29239;BME280;16267;48.194;11.546;2023-09-08T09:50:32;96260.38;;;22.32;66.56
29239;BME280;16267;48.194;11.546;2023-09-08T09:53:08;96254.03;;;22.40;66.64
29239;BME280;16267;48.194;11.546;2023-09-08T09:55:36;96251.19;;;22.49;66.89
29239;BME280;16267;48.194;11.546;2023-09-08T09:58:03;96253.00;;;22.53;64.32
29239;BME280;16267;48.194;11.546;2023-09-08T10:00:30;96249.88;;;22.60;64.57
29239;BME280;16267;48.194;11.546;2023-09-08T10:02:58;96249.50;;;22.67;65.33
29239;BME280;16267;48.194;11.546;2023-09-08T10:05:26;96243.44;;;22.78;66.80
29239;BME280;16267;48.194;11.546;2023-09-08T10:07:52;96244.53;;;22.86;65.97
29239;BME280;16267;48.194;11.546;2023-09-08T10:10:20;96243.66;;;22.94;65.30
29239;BME280;16267;48.194;11.546;2023-09-08T10:12:52;96243.81;;;23.00;64.49
29239;BME280;16267;48.194;11.546;2023-09-08T10:15:22;96233.19;;;23.08;64.35
29239;BME280;16267;48.194;11.546;2023-09-08T10:17:56;96241.75;;;23.15;63.67
29239;BME280;16267;48.194;11.546;2023-09-08T10:20:24;96235.91;;;23.23;64.08
29239;BME280;16267;48.194;11.546;2023-09-08T10:23:04;96236.22;;;23.30;64.64
29239;BME280;16267;48.194;11.546;2023-09-08T10:25:37;96228.34;;;23.38;63.86
29239;BME280;16267;48.194;11.546;2023-09-08T10:28:04;96234.19;;;23.46;63.23
29239;BME280;16267;48.194;11.546;2023-09-08T10:30:31;96231.03;;;23.53;62.55
29239;BME280;16267;48.194;11.546;2023-09-08T10:32:58;96228.38;;;23.58;60.99
29239;BME280;16267;48.194;11.546;2023-09-08T10:35:25;96227.19;;;23.65;62.10
29239;BME280;16267;48.194;11.546;2023-09-08T10:37:51;96228.78;;;23.72;61.76
29239;BME280;16267;48.194;11.546;2023-09-08T10:40:23;96235.34;;;23.80;61.41
29239;BME280;16267;48.194;11.546;2023-09-08T10:42:53;96227.94;;;23.86;60.42
29239;BME280;16267;48.194;11.546;2023-09-08T10:45:34;96225.78;;;23.96;60.88
29239;BME280;16267;48.194;11.546;2023-09-08T10:48:00;96225.09;;;24.01;59.54
29239;BME280;16267;48.194;11.546;2023-09-08T10:50:35;96226.66;;;24.08;59.38
29239;BME280;16267;48.194;11.546;2023-09-08T10:53:17;96225.47;;;24.14;59.62
29239;BME280;16267;48.194;11.546;2023-09-08T10:55:45;96223.81;;;24.22;61.14
29239;BME280;16267;48.194;11.546;2023-09-08T10:58:22;96224.88;;;24.31;59.33
29239;BME280;16267;48.194;11.546;2023-09-08T11:00:54;96223.69;;;24.37;60.21
29239;BME280;16267;48.194;11.546;2023-09-08T11:03:27;96217.03;;;24.44;59.20
29239;BME280;16267;48.194;11.546;2023-09-08T11:05:56;96222.56;;;24.49;59.29
29239;BME280;16267;48.194;11.546;2023-09-08T11:08:22;96218.13;;;24.58;58.47
29239;BME280;16267;48.194;11.546;2023-09-08T11:10:48;96232.16;;;24.65;58.93
29239;BME280;16267;48.194;11.546;2023-09-08T11:13:15;96228.22;;;24.72;58.20
29239;BME280;16267;48.194;11.546;2023-09-08T11:15:40;96225.03;;;24.79;58.29
29239;BME280;16267;48.194;11.546;2023-09-08T11:18:07;96226.56;;;24.86;57.65
29239;BME280;16267;48.194;11.546;2023-09-08T11:20:34;96229.59;;;24.93;57.03
29239;BME280;16267;48.194;11.546;2023-09-08T11:23:00;96227.91;;;25.02;57.00
29239;BME280;16267;48.194;11.546;2023-09-08T11:25:26;96225.94;;;25.08;56.04
29239;BME280;16267;48.194;11.546;2023-09-08T11:27:52;96218.50;;;25.14;57.38
29239;BME280;16267;48.194;11.546;2023-09-08T11:30:18;96227.03;;;25.22;57.09
29239;BME280;16267;48.194;11.546;2023-09-08T11:32:44;96229.81;;;25.27;56.31
29239;BME280;16267;48.194;11.546;2023-09-08T11:35:12;96223.88;;;25.34;55.77
29239;BME280;16267;48.194;11.546;2023-09-08T11:37:40;96217.13;;;25.41;55.14
29239;BME280;16267;48.194;11.546;2023-09-08T11:40:08;96225.91;;;25.45;54.99
29239;BME280;16267;48.194;11.546;2023-09-08T11:42:35;96219.69;;;25.50;54.72
29239;BME280;16267;48.194;11.546;2023-09-08T11:45:01;96216.69;;;25.54;54.38
29239;BME280;16267;48.194;11.546;2023-09-08T11:47:29;96221.19;;;25.57;53.88
29239;BME280;16267;48.194;11.546;2023-09-08T11:49:56;96223.69;;;25.60;53.92
29239;BME280;16267;48.194;11.546;2023-09-08T11:52:23;96218.72;;;25.65;53.77
29239;BME280;16267;48.194;11.546;2023-09-08T11:54:51;96211.75;;;25.69;54.08
29239;BME280;16267;48.194;11.546;2023-09-08T11:57:17;96215.53;;;25.72;54.50
29239;BME280;16267;48.194;11.546;2023-09-08T11:59:44;96212.53;;;25.75;54.78
29239;BME280;16267;48.194;11.546;2023-09-08T12:02:14;96211.78;;;25.80;54.92
29239;BME280;16267;48.194;11.546;2023-09-08T12:04:40;96220.56;;;25.85;54.38
29239;BME280;16267;48.194;11.546;2023-09-08T12:07:12;96215.81;;;25.91;54.03
29239;BME280;16267;48.194;11.546;2023-09-08T12:09:42;96212.59;;;25.98;54.66
29239;BME280;16267;48.194;11.546;2023-09-08T12:12:12;96211.34;;;26.04;53.74
29239;BME280;16267;48.194;11.546;2023-09-08T12:14:42;96206.63;;;26.11;55.88
29239;BME280;16267;48.194;11.546;2023-09-08T12:17:08;96206.38;;;26.14;54.41
29239;BME280;16267;48.194;11.546;2023-09-08T12:19:34;96212.63;;;26.20;53.96
29239;BME280;16267;48.194;11.546;2023-09-08T12:22:05;96202.13;;;26.24;53.89
29239;BME280;16267;48.194;11.546;2023-09-08T12:27:19;96204.88;;;26.30;53.17
29239;BME280;16267;48.194;11.546;2023-09-08T12:30:00;96207.13;;;26.32;53.26
29239;BME280;16267;48.194;11.546;2023-09-08T12:32:30;96198.13;;;26.37;53.51
29239;BME280;16267;48.194;11.546;2023-09-08T12:34:56;96206.63;;;26.39;53.59
29239;BME280;16267;48.194;11.546;2023-09-08T12:37:24;96197.38;;;26.42;53.42
29239;BME280;16267;48.194;11.546;2023-09-08T12:40:09;96198.13;;;26.42;52.12
29239;BME280;16267;48.194;11.546;2023-09-08T12:42:35;96198.13;;;26.48;52.80
29239;BME280;16267;48.194;11.546;2023-09-08T12:45:00;96195.88;;;26.52;53.25
29239;BME280;16267;48.194;11.546;2023-09-08T12:47:26;96192.16;;;26.55;53.51
29239;BME280;16267;48.194;11.546;2023-09-08T12:49:52;96200.91;;;26.59;53.26
29239;BME280;16267;48.194;11.546;2023-09-08T12:52:21;96195.38;;;26.59;53.24
29239;BME280;16267;48.194;11.546;2023-09-08T12:54:47;96192.38;;;26.63;53.79